sensor_id;sensor_type;location;lat;lon;timestamp;P1;durP1;ratioP1;P2;durP2;ratioP2
9960;SDS011;5021;51.506;11.320;2023-08-01T00:01:37;4.43;;;3.90;;
9960;SDS011;5021;51.506;11.320;2023-08-01T00:04:03;4.43;;;3.43;;
9960;SDS011;5021;51.506;11.320;2023-08-01T00:06:29;4.27;;;3.70;;
9960;SDS011;5021;51.506;11.320;2023-08-01T00:08:55;4.17;;;3.07;;
9960;SDS011;5021;51.506;11.320;2023-08-01T00:11:21;5.60;;;2.97;;
9960;SDS011;5021;51.506;11.320;2023-08-01T00:13:46;3.83;;;3.30;;
9960;SDS011;5021;51.506;11.320;2023-08-01T00:16:12;4.70;;;3.53;;
9960;SDS011;5021;51.506;11.320;2023-08-01T00:18:38;4.07;;;3.17;;
9960;SDS011;5021;51.506;11.320;2023-08-01T00:21:04;4.10;;;3.53;;
9960;SDS011;5021;51.506;11.320;2023-08-01T00:23:34;3.30;;;3.00;;
9960;SDS011;5021;51.506;11.320;2023-08-01T00:26:00;4.37;;;3.23;;
9960;SDS011;5021;51.506;11.320;2023-08-01T00:28:26;4.47;;;3.43;;
9960;SDS011;5021;51.506;11.320;2023-08-01T00:31:01;4.07;;;3.53;;
9960;SDS011;5021;51.506;11.320;2023-08-01T00:33:27;3.90;;;3.20;;
9960;SDS011;5021;51.506;11.320;2023-08-01T00:35:53;5.33;;;3.43;;
9960;SDS011;5021;51.506;11.320;2023-08-01T00:38:19;4.47;;;3.63;;
9960;SDS011;5021;51.506;11.320;2023-08-01T00:40:45;4.10;;;3.17;;
9960;SDS011;5021;51.506;11.320;2023-08-01T00:43:11;3.90;;;3.50;;
9960;SDS011;5021;51.506;11.320;2023-08-01T00:45:37;3.90;;;3.17;;
9960;SDS011;5021;51.506;11.320;2023-08-01T00:48:03;3.37;;;2.83;;
9960;SDS011;5021;51.506;11.320;2023-08-01T00:50:29;4.37;;;3.07;;
9960;SDS011;5021;51.506;11.320;2023-08-01T00:52:55;4.93;;;3.23;;
9960;SDS011;5021;51.506;11.320;2023-08-01T00:55:22;4.13;;;2.90;;
9960;SDS011;5021;51.506;11.320;2023-08-01T00:57:48;4.20;;;3.13;;
9960;SDS011;5021;51.506;11.320;2023-08-01T01:00:14;4.77;;;3.27;;
9960;SDS011;5021;51.506;11.320;2023-08-01T01:02:40;3.40;;;3.10;;
9960;SDS011;5021;51.506;11.320;2023-08-01T01:05:06;4.90;;;2.93;;
9960;SDS011;5021;51.506;11.320;2023-08-01T01:07:32;4.33;;;3.10;;
9960;SDS011;5021;51.506;11.320;2023-08-01T01:09:58;4.57;;;3.07;;
9960;SDS011;5021;51.506;11.320;2023-08-01T01:12:24;3.73;;;3.03;;
9960;SDS011;5021;51.506;11.320;2023-08-01T01:14:51;4.17;;;3.10;;
9960;SDS011;5021;51.506;11.320;2023-08-01T01:17:16;4.30;;;2.83;;
9960;SDS011;5021;51.506;11.320;2023-08-01T01:19:43;3.73;;;3.10;;
9960;SDS011;5021;51.506;11.320;2023-08-01T01:22:09;4.73;;;2.83;;
9960;SDS011;5021;51.506;11.320;2023-08-01T01:24:36;3.20;;;2.87;;
9960;SDS011;5021;51.506;11.320;2023-08-01T01:27:03;4.23;;;2.83;;
9960;SDS011;5021;51.506;11.320;2023-08-01T01:29:32;5.30;;;2.80;;
9960;SDS011;5021;51.506;11.320;2023-08-01T01:31:59;3.60;;;2.77;;
9960;SDS011;5021;51.506;11.320;2023-08-01T01:34:25;3.57;;;2.80;;
9960;SDS011;5021;51.506;11.320;2023-08-01T01:36:51;3.60;;;2.63;;
9960;SDS011;5021;51.506;11.320;2023-08-01T01:39:17;3.80;;;2.73;;
9960;SDS011;5021;51.506;11.320;2023-08-01T01:41:43;2.87;;;2.40;;
9960;SDS011;5021;51.506;11.320;2023-08-01T01:44:09;2.83;;;2.53;;
9960;SDS011;5021;51.506;11.320;2023-08-01T01:46:35;3.40;;;2.70;;
9960;SDS011;5021;51.506;11.320;2023-08-01T01:49:01;2.87;;;2.63;;
9960;SDS011;5021;51.506;11.320;2023-08-01T01:51:27;3.40;;;2.47;;
9960;SDS011;5021;51.506;11.320;2023-08-01T01:53:54;3.00;;;2.70;;
9960;SDS011;5021;51.506;11.320;2023-08-01T01:56:19;3.23;;;2.47;;
9960;SDS011;5021;51.506;11.320;2023-08-01T01:58:45;3.63;;;2.73;;
9960;SDS011;5021;51.506;11.320;2023-08-01T02:01:11;3.30;;;2.37;;
9960;SDS011;5021;51.506;11.320;2023-08-01T02:03:37;4.03;;;2.80;;
9960;SDS011;5021;51.506;11.320;2023-08-01T02:06:03;3.77;;;2.30;;
9960;SDS011;5021;51.506;11.320;2023-08-01T02:08:29;4.03;;;3.10;;
9960;SDS011;5021;51.506;11.320;2023-08-01T02:10:55;4.23;;;2.90;;
9960;SDS011;5021;51.506;11.320;2023-08-01T02:13:23;3.93;;;2.70;;
9960;SDS011;5021;51.506;11.320;2023-08-01T02:15:49;3.00;;;2.60;;
9960;SDS011;5021;51.506;11.320;2023-08-01T02:18:15;4.37;;;2.60;;
9960;SDS011;5021;51.506;11.320;2023-08-01T02:20:41;2.90;;;2.50;;
9960;SDS011;5021;51.506;11.320;2023-08-01T02:23:07;3.17;;;2.67;;
9960;SDS011;5021;51.506;11.320;2023-08-01T02:25:37;4.10;;;2.70;;
9960;SDS011;5021;51.506;11.320;2023-08-01T02:28:03;4.73;;;2.77;;
9960;SDS011;5021;51.506;11.320;2023-08-01T02:30:29;2.70;;;2.50;;
9960;SDS011;5021;51.506;11.320;2023-08-01T02:32:55;5.33;;;2.63;;
9960;SDS011;5021;51.506;11.320;2023-08-01T02:35:21;4.07;;;2.90;;
9960;SDS011;5021;51.506;11.320;2023-08-01T02:37:47;3.53;;;2.63;;
9960;SDS011;5021;51.506;11.320;2023-08-01T02:40:13;3.20;;;2.87;;
9960;SDS011;5021;51.506;11.320;2023-08-01T02:42:39;3.60;;;2.90;;
9960;SDS011;5021;51.506;11.320;2023-08-01T02:45:05;3.80;;;2.70;;
9960;SDS011;5021;51.506;11.320;2023-08-01T02:47:31;4.80;;;2.77;;
9960;SDS011;5021;51.506;11.320;2023-08-01T02:49:57;4.30;;;2.67;;
9960;SDS011;5021;51.506;11.320;2023-08-01T02:52:23;3.90;;;2.90;;
9960;SDS011;5021;51.506;11.320;2023-08-01T02:54:49;2.90;;;2.50;;
9960;SDS011;5021;51.506;11.320;2023-08-01T02:57:15;3.23;;;2.70;;
9960;SDS011;5021;51.506;11.320;2023-08-01T02:59:41;4.23;;;3.00;;
9960;SDS011;5021;51.506;11.320;2023-08-01T03:02:07;3.60;;;2.93;;
9960;SDS011;5021;51.506;11.320;2023-08-01T03:04:32;3.00;;;2.53;;
9960;SDS011;5021;51.506;11.320;2023-08-01T03:06:58;2.93;;;2.50;;
9960;SDS011;5021;51.506;11.320;2023-08-01T03:09:24;3.50;;;2.63;;
9960;SDS011;5021;51.506;11.320;2023-08-01T03:11:50;2.67;;;2.30;;
9960;SDS011;5021;51.506;11.320;2023-08-01T03:14:16;4.27;;;2.77;;
9960;SDS011;5021;51.506;11.320;2023-08-01T03:16:42;2.90;;;2.60;;
9960;SDS011;5021;51.506;11.320;2023-08-01T03:19:08;3.03;;;2.57;;
9960;SDS011;5021;51.506;11.320;2023-08-01T03:21:34;2.90;;;2.60;;
9960;SDS011;5021;51.506;11.320;2023-08-01T03:24:01;4.10;;;3.03;;
9960;SDS011;5021;51.506;11.320;2023-08-01T03:26:27;2.93;;;2.60;;
9960;SDS011;5021;51.506;11.320;2023-08-01T03:28:53;2.93;;;2.70;;
9960;SDS011;5021;51.506;11.320;2023-08-01T03:31:20;5.17;;;2.93;;
9960;SDS011;5021;51.506;11.320;2023-08-01T03:33:46;3.40;;;2.60;;
9960;SDS011;5021;51.506;11.320;2023-08-01T03:36:12;3.03;;;2.50;;
9960;SDS011;5021;51.506;11.320;2023-08-01T03:38:38;3.63;;;2.80;;
9960;SDS011;5021;51.506;11.320;2023-08-01T03:41:04;4.60;;;2.87;;
9960;SDS011;5021;51.506;11.320;2023-08-01T03:43:30;3.80;;;2.60;;
9960;SDS011;5021;51.506;11.320;2023-08-01T03:45:56;5.20;;;3.00;;
9960;SDS011;5021;51.506;11.320;2023-08-01T03:48:22;2.80;;;2.50;;
9960;SDS011;5021;51.506;11.320;2023-08-01T03:50:48;4.63;;;2.60;;
9960;SDS011;5021;51.506;11.320;2023-08-01T03:53:14;4.50;;;3.10;;
9960;SDS011;5021;51.506;11.320;2023-08-01T03:55:40;2.67;;;2.40;;
9960;SDS011;5021;51.506;11.320;2023-08-01T03:58:07;3.17;;;2.50;;
9960;SDS011;5021;51.506;11.320;2023-08-01T04:00:33;4.57;;;3.10;;
9960;SDS011;5021;51.506;11.320;2023-08-01T04:02:59;3.10;;;2.67;;
9960;SDS011;5021;51.506;11.320;2023-08-01T04:05:26;3.83;;;2.60;;
9960;SDS011;5021;51.506;11.320;2023-08-01T04:07:52;3.90;;;2.70;;
9960;SDS011;5021;51.506;11.320;2023-08-01T04:10:19;5.07;;;2.80;;
9960;SDS011;5021;51.506;11.320;2023-08-01T04:12:46;4.50;;;2.77;;
9960;SDS011;5021;51.506;11.320;2023-08-01T04:15:11;4.53;;;2.70;;
9960;SDS011;5021;51.506;11.320;2023-08-01T04:17:37;4.00;;;2.30;;
9960;SDS011;5021;51.506;11.320;2023-08-01T04:20:04;4.30;;;2.40;;
9960;SDS011;5021;51.506;11.320;2023-08-01T04:22:30;4.67;;;2.40;;
9960;SDS011;5021;51.506;11.320;2023-08-01T04:24:56;3.60;;;2.20;;
9960;SDS011;5021;51.506;11.320;2023-08-01T04:27:21;4.83;;;2.70;;
9960;SDS011;5021;51.506;11.320;2023-08-01T04:29:48;4.27;;;2.37;;
9960;SDS011;5021;51.506;11.320;2023-08-01T04:32:14;3.63;;;2.33;;
9960;SDS011;5021;51.506;11.320;2023-08-01T04:34:40;4.07;;;2.20;;
9960;SDS011;5021;51.506;11.320;2023-08-01T04:37:06;3.33;;;2.20;;
9960;SDS011;5021;51.506;11.320;2023-08-01T04:39:33;3.00;;;2.10;;
9960;SDS011;5021;51.506;11.320;2023-08-01T04:41:59;3.67;;;1.80;;
9960;SDS011;5021;51.506;11.320;2023-08-01T04:44:25;2.33;;;1.63;;
9960;SDS011;5021;51.506;11.320;2023-08-01T04:46:51;3.57;;;1.90;;
9960;SDS011;5021;51.506;11.320;2023-08-01T04:49:16;2.07;;;1.73;;
9960;SDS011;5021;51.506;11.320;2023-08-01T04:51:42;1.97;;;1.67;;
9960;SDS011;5021;51.506;11.320;2023-08-01T04:54:08;3.33;;;1.77;;
9960;SDS011;5021;51.506;11.320;2023-08-01T04:56:34;2.53;;;1.63;;
9960;SDS011;5021;51.506;11.320;2023-08-01T04:59:00;2.03;;;1.70;;
9960;SDS011;5021;51.506;11.320;2023-08-01T05:01:27;2.20;;;1.70;;
9960;SDS011;5021;51.506;11.320;2023-08-01T05:03:53;3.60;;;1.57;;
9960;SDS011;5021;51.506;11.320;2023-08-01T05:06:19;2.33;;;1.77;;
9960;SDS011;5021;51.506;11.320;2023-08-01T05:08:44;3.07;;;1.90;;
9960;SDS011;5021;51.506;11.320;2023-08-01T05:11:10;2.07;;;1.77;;
9960;SDS011;5021;51.506;11.320;2023-08-01T05:13:36;3.13;;;1.83;;
9960;SDS011;5021;51.506;11.320;2023-08-01T05:16:03;2.83;;;1.70;;
9960;SDS011;5021;51.506;11.320;2023-08-01T05:18:29;3.07;;;1.70;;
9960;SDS011;5021;51.506;11.320;2023-08-01T05:20:55;3.57;;;1.87;;
9960;SDS011;5021;51.506;11.320;2023-08-01T05:23:21;3.97;;;1.90;;
9960;SDS011;5021;51.506;11.320;2023-08-01T05:25:47;5.13;;;1.83;;
9960;SDS011;5021;51.506;11.320;2023-08-01T05:28:13;3.70;;;2.13;;
9960;SDS011;5021;51.506;11.320;2023-08-01T05:30:40;4.23;;;2.27;;
9960;SDS011;5021;51.506;11.320;2023-08-01T05:33:05;2.97;;;2.40;;
9960;SDS011;5021;51.506;11.320;2023-08-01T05:35:31;2.73;;;2.00;;
9960;SDS011;5021;51.506;11.320;2023-08-01T05:37:57;2.50;;;2.07;;
9960;SDS011;5021;51.506;11.320;2023-08-01T05:40:24;2.53;;;1.93;;
9960;SDS011;5021;51.506;11.320;2023-08-01T05:42:50;3.07;;;1.90;;
9960;SDS011;5021;51.506;11.320;2023-08-01T05:45:16;3.70;;;1.97;;
9960;SDS011;5021;51.506;11.320;2023-08-01T05:47:42;2.40;;;1.97;;
9960;SDS011;5021;51.506;11.320;2023-08-01T05:50:08;4.00;;;1.70;;
9960;SDS011;5021;51.506;11.320;2023-08-01T05:52:35;2.10;;;1.70;;
9960;SDS011;5021;51.506;11.320;2023-08-01T05:55:02;2.17;;;1.90;;
9960;SDS011;5021;51.506;11.320;2023-08-01T05:57:28;1.60;;;1.40;;
9960;SDS011;5021;51.506;11.320;2023-08-01T05:59:54;1.87;;;1.67;;
9960;SDS011;5021;51.506;11.320;2023-08-01T06:02:20;2.17;;;1.63;;
9960;SDS011;5021;51.506;11.320;2023-08-01T06:04:46;1.70;;;1.60;;
9960;SDS011;5021;51.506;11.320;2023-08-01T06:07:12;1.87;;;1.63;;
9960;SDS011;5021;51.506;11.320;2023-08-01T06:09:38;1.70;;;1.60;;
9960;SDS011;5021;51.506;11.320;2023-08-01T06:12:04;2.10;;;1.90;;
9960;SDS011;5021;51.506;11.320;2023-08-01T06:14:30;3.23;;;1.40;;
9960;SDS011;5021;51.506;11.320;2023-08-01T06:16:56;2.27;;;1.60;;
9960;SDS011;5021;51.506;11.320;2023-08-01T06:19:22;1.70;;;1.57;;
9960;SDS011;5021;51.506;11.320;2023-08-01T06:21:48;3.10;;;1.80;;
9960;SDS011;5021;51.506;11.320;2023-08-01T06:24:14;3.43;;;1.60;;
9960;SDS011;5021;51.506;11.320;2023-08-01T06:26:40;1.80;;;1.60;;
9960;SDS011;5021;51.506;11.320;2023-08-01T06:29:06;1.93;;;1.60;;
9960;SDS011;5021;51.506;11.320;2023-08-01T06:31:32;2.67;;;1.60;;
9960;SDS011;5021;51.506;11.320;2023-08-01T06:33:58;1.67;;;1.47;;
9960;SDS011;5021;51.506;11.320;2023-08-01T06:36:24;2.83;;;1.70;;
9960;SDS011;5021;51.506;11.320;2023-08-01T06:38:50;1.67;;;1.20;;
9960;SDS011;5021;51.506;11.320;2023-08-01T06:41:16;1.33;;;1.23;;
9960;SDS011;5021;51.506;11.320;2023-08-01T06:43:42;1.30;;;1.20;;
9960;SDS011;5021;51.506;11.320;2023-08-01T06:46:07;1.63;;;1.13;;
9960;SDS011;5021;51.506;11.320;2023-08-01T06:48:34;1.40;;;1.30;;
9960;SDS011;5021;51.506;11.320;2023-08-01T06:51:00;3.00;;;1.40;;
9960;SDS011;5021;51.506;11.320;2023-08-01T06:53:29;1.57;;;1.30;;
9960;SDS011;5021;51.506;11.320;2023-08-01T06:55:55;3.10;;;1.37;;
9960;SDS011;5021;51.506;11.320;2023-08-01T06:58:21;1.30;;;1.20;;
9960;SDS011;5021;51.506;11.320;2023-08-01T07:00:47;2.83;;;1.50;;
9960;SDS011;5021;51.506;11.320;2023-08-01T07:03:13;2.60;;;1.40;;
9960;SDS011;5021;51.506;11.320;2023-08-01T07:05:39;1.73;;;1.20;;
9960;SDS011;5021;51.506;11.320;2023-08-01T07:08:05;1.23;;;0.97;;
9960;SDS011;5021;51.506;11.320;2023-08-01T07:10:34;2.40;;;1.10;;
9960;SDS011;5021;51.506;11.320;2023-08-01T07:13:00;1.80;;;0.93;;
9960;SDS011;5021;51.506;11.320;2023-08-01T07:15:28;2.87;;;1.30;;
9960;SDS011;5021;51.506;11.320;2023-08-01T07:17:54;1.40;;;1.13;;
9960;SDS011;5021;51.506;11.320;2023-08-01T07:20:20;1.10;;;1.00;;
9960;SDS011;5021;51.506;11.320;2023-08-01T07:22:46;2.27;;;0.90;;
9960;SDS011;5021;51.506;11.320;2023-08-01T07:25:12;1.10;;;0.80;;
9960;SDS011;5021;51.506;11.320;2023-08-01T07:27:38;1.43;;;1.00;;
9960;SDS011;5021;51.506;11.320;2023-08-01T07:30:05;1.20;;;1.10;;
9960;SDS011;5021;51.506;11.320;2023-08-01T07:32:31;2.20;;;0.70;;
9960;SDS011;5021;51.506;11.320;2023-08-01T07:34:57;1.90;;;1.17;;
9960;SDS011;5021;51.506;11.320;2023-08-01T07:37:23;1.20;;;0.90;;
9960;SDS011;5021;51.506;11.320;2023-08-01T07:39:49;2.27;;;1.23;;
9960;SDS011;5021;51.506;11.320;2023-08-01T07:42:15;1.27;;;0.90;;
9960;SDS011;5021;51.506;11.320;2023-08-01T07:44:41;3.00;;;0.97;;
9960;SDS011;5021;51.506;11.320;2023-08-01T07:47:07;1.00;;;0.70;;
9960;SDS011;5021;51.506;11.320;2023-08-01T07:49:33;1.73;;;0.77;;
9960;SDS011;5021;51.506;11.320;2023-08-01T07:51:59;1.00;;;0.90;;
9960;SDS011;5021;51.506;11.320;2023-08-01T07:54:25;1.43;;;0.90;;
9960;SDS011;5021;51.506;11.320;2023-08-01T07:56:51;0.67;;;0.60;;
9960;SDS011;5021;51.506;11.320;2023-08-01T07:59:17;0.70;;;0.57;;
9960;SDS011;5021;51.506;11.320;2023-08-01T08:01:43;1.83;;;0.70;;
9960;SDS011;5021;51.506;11.320;2023-08-01T08:04:09;0.57;;;0.57;;
9960;SDS011;5021;51.506;11.320;2023-08-01T08:06:35;0.50;;;0.50;;
9960;SDS011;5021;51.506;11.320;2023-08-01T08:09:01;1.17;;;0.67;;
9960;SDS011;5021;51.506;11.320;2023-08-01T08:11:28;0.87;;;0.60;;
9960;SDS011;5021;51.506;11.320;2023-08-01T08:13:53;1.07;;;0.70;;
9960;SDS011;5021;51.506;11.320;2023-08-01T08:16:19;0.97;;;0.80;;
9960;SDS011;5021;51.506;11.320;2023-08-01T08:18:45;0.90;;;0.67;;
9960;SDS011;5021;51.506;11.320;2023-08-01T08:21:11;0.97;;;0.50;;
9960;SDS011;5021;51.506;11.320;2023-08-01T08:23:37;0.73;;;0.70;;
9960;SDS011;5021;51.506;11.320;2023-08-01T08:26:03;0.90;;;0.70;;
9960;SDS011;5021;51.506;11.320;2023-08-01T08:28:31;0.70;;;0.70;;
9960;SDS011;5021;51.506;11.320;2023-08-01T08:30:58;0.80;;;0.60;;
9960;SDS011;5021;51.506;11.320;2023-08-01T08:33:24;0.73;;;0.70;;
9960;SDS011;5021;51.506;11.320;2023-08-01T08:35:50;1.00;;;0.90;;
9960;SDS011;5021;51.506;11.320;2023-08-01T08:38:16;0.60;;;0.60;;
9960;SDS011;5021;51.506;11.320;2023-08-01T08:40:46;1.13;;;1.00;;
9960;SDS011;5021;51.506;11.320;2023-08-01T08:43:14;1.00;;;0.90;;
9960;SDS011;5021;51.506;11.320;2023-08-01T08:45:40;1.70;;;0.63;;
9960;SDS011;5021;51.506;11.320;2023-08-01T08:48:09;1.33;;;0.40;;
9960;SDS011;5021;51.506;11.320;2023-08-01T08:50:35;1.40;;;0.80;;
9960;SDS011;5021;51.506;11.320;2023-08-01T08:53:01;1.30;;;0.60;;
9960;SDS011;5021;51.506;11.320;2023-08-01T08:55:28;0.50;;;0.50;;
9960;SDS011;5021;51.506;11.320;2023-08-01T08:57:56;0.50;;;0.50;;
9960;SDS011;5021;51.506;11.320;2023-08-01T09:00:22;0.40;;;0.40;;
9960;SDS011;5021;51.506;11.320;2023-08-01T09:02:49;0.83;;;0.50;;
9960;SDS011;5021;51.506;11.320;2023-08-01T09:05:14;0.43;;;0.43;;
9960;SDS011;5021;51.506;11.320;2023-08-01T09:07:41;0.70;;;0.60;;
9960;SDS011;5021;51.506;11.320;2023-08-01T09:10:07;0.70;;;0.70;;
9960;SDS011;5021;51.506;11.320;2023-08-01T09:12:34;1.67;;;0.90;;
9960;SDS011;5021;51.506;11.320;2023-08-01T09:15:00;1.70;;;0.60;;
9960;SDS011;5021;51.506;11.320;2023-08-01T09:17:26;1.10;;;0.97;;
9960;SDS011;5021;51.506;11.320;2023-08-01T09:19:57;1.23;;;0.70;;
9960;SDS011;5021;51.506;11.320;2023-08-01T09:22:29;0.80;;;0.80;;
9960;SDS011;5021;51.506;11.320;2023-08-01T09:24:55;1.03;;;0.93;;
9960;SDS011;5021;51.506;11.320;2023-08-01T09:27:21;1.20;;;1.10;;
9960;SDS011;5021;51.506;11.320;2023-08-01T09:29:48;2.47;;;1.50;;
9960;SDS011;5021;51.506;11.320;2023-08-01T09:32:14;1.53;;;1.40;;
9960;SDS011;5021;51.506;11.320;2023-08-01T09:34:41;1.40;;;1.30;;
9960;SDS011;5021;51.506;11.320;2023-08-01T09:37:08;2.20;;;1.70;;
9960;SDS011;5021;51.506;11.320;2023-08-01T09:39:34;1.80;;;1.60;;
9960;SDS011;5021;51.506;11.320;2023-08-01T09:42:00;4.83;;;2.00;;
9960;SDS011;5021;51.506;11.320;2023-08-01T09:44:28;2.10;;;1.90;;
9960;SDS011;5021;51.506;11.320;2023-08-01T09:47:00;2.03;;;1.87;;
9960;SDS011;5021;51.506;11.320;2023-08-01T09:49:27;2.77;;;2.00;;
9960;SDS011;5021;51.506;11.320;2023-08-01T09:51:53;2.03;;;1.83;;
9960;SDS011;5021;51.506;11.320;2023-08-01T09:54:20;1.67;;;1.57;;
9960;SDS011;5021;51.506;11.320;2023-08-01T09:56:47;2.40;;;1.90;;
9960;SDS011;5021;51.506;11.320;2023-08-01T09:59:15;1.90;;;1.80;;
9960;SDS011;5021;51.506;11.320;2023-08-01T10:01:44;2.10;;;1.90;;
9960;SDS011;5021;51.506;11.320;2023-08-01T10:04:13;2.40;;;1.77;;
9960;SDS011;5021;51.506;11.320;2023-08-01T10:06:41;1.57;;;1.47;;
9960;SDS011;5021;51.506;11.320;2023-08-01T10:09:10;1.67;;;1.57;;
9960;SDS011;5021;51.506;11.320;2023-08-01T10:11:36;2.73;;;1.70;;
9960;SDS011;5021;51.506;11.320;2023-08-01T10:14:04;2.53;;;1.87;;
9960;SDS011;5021;51.506;11.320;2023-08-01T10:16:30;2.37;;;2.13;;
9960;SDS011;5021;51.506;11.320;2023-08-01T10:18:56;3.00;;;2.20;;
9960;SDS011;5021;51.506;11.320;2023-08-01T10:21:22;2.83;;;2.03;;
9960;SDS011;5021;51.506;11.320;2023-08-01T10:23:48;3.10;;;2.00;;
9960;SDS011;5021;51.506;11.320;2023-08-01T10:26:14;2.53;;;2.13;;
9960;SDS011;5021;51.506;11.320;2023-08-01T10:28:41;2.63;;;2.13;;
9960;SDS011;5021;51.506;11.320;2023-08-01T10:31:11;6.37;;;2.53;;
9960;SDS011;5021;51.506;11.320;2023-08-01T10:33:38;3.03;;;2.20;;
9960;SDS011;5021;51.506;11.320;2023-08-01T10:36:17;3.50;;;2.30;;
9960;SDS011;5021;51.506;11.320;2023-08-01T10:38:53;2.40;;;2.10;;
9960;SDS011;5021;51.506;11.320;2023-08-01T10:41:20;2.80;;;2.10;;
9960;SDS011;5021;51.506;11.320;2023-08-01T10:43:46;3.33;;;2.40;;
9960;SDS011;5021;51.506;11.320;2023-08-01T10:46:12;3.00;;;2.53;;
9960;SDS011;5021;51.506;11.320;2023-08-01T10:48:51;4.10;;;2.70;;
9960;SDS011;5021;51.506;11.320;2023-08-01T10:51:17;3.83;;;2.50;;
9960;SDS011;5021;51.506;11.320;2023-08-01T10:53:43;3.90;;;2.80;;
9960;SDS011;5021;51.506;11.320;2023-08-01T10:56:16;4.87;;;3.03;;
9960;SDS011;5021;51.506;11.320;2023-08-01T10:58:43;4.30;;;2.60;;
9960;SDS011;5021;51.506;11.320;2023-08-01T11:01:09;4.33;;;3.00;;
9960;SDS011;5021;51.506;11.320;2023-08-01T11:03:38;2.83;;;2.43;;
9960;SDS011;5021;51.506;11.320;2023-08-01T11:06:04;3.33;;;2.40;;
9960;SDS011;5021;51.506;11.320;2023-08-01T11:08:34;4.67;;;2.80;;
9960;SDS011;5021;51.506;11.320;2023-08-01T11:11:00;4.50;;;2.93;;
9960;SDS011;5021;51.506;11.320;2023-08-01T11:13:26;3.47;;;3.17;;
9960;SDS011;5021;51.506;11.320;2023-08-01T11:15:52;4.30;;;2.93;;
9960;SDS011;5021;51.506;11.320;2023-08-01T11:18:21;3.17;;;2.87;;
9960;SDS011;5021;51.506;11.320;2023-08-01T11:20:47;3.67;;;3.27;;
9960;SDS011;5021;51.506;11.320;2023-08-01T11:23:12;4.20;;;3.23;;
9960;SDS011;5021;51.506;11.320;2023-08-01T11:25:39;4.13;;;3.07;;
9960;SDS011;5021;51.506;11.320;2023-08-01T11:28:06;5.00;;;3.50;;
9960;SDS011;5021;51.506;11.320;2023-08-01T11:30:32;3.87;;;3.33;;
9960;SDS011;5021;51.506;11.320;2023-08-01T11:32:58;4.00;;;3.60;;
9960;SDS011;5021;51.506;11.320;2023-08-01T11:35:25;4.37;;;3.40;;
9960;SDS011;5021;51.506;11.320;2023-08-01T11:37:51;5.83;;;3.97;;
9960;SDS011;5021;51.506;11.320;2023-08-01T11:40:17;4.77;;;3.90;;
9960;SDS011;5021;51.506;11.320;2023-08-01T11:42:48;5.97;;;3.80;;
9960;SDS011;5021;51.506;11.320;2023-08-01T11:45:16;5.70;;;3.67;;
9960;SDS011;5021;51.506;11.320;2023-08-01T11:47:46;5.77;;;3.97;;
9960;SDS011;5021;51.506;11.320;2023-08-01T11:50:12;4.00;;;3.60;;
9960;SDS011;5021;51.506;11.320;2023-08-01T11:52:38;4.47;;;3.57;;
9960;SDS011;5021;51.506;11.320;2023-08-01T11:55:04;4.80;;;3.30;;
9960;SDS011;5021;51.506;11.320;2023-08-01T11:57:30;5.83;;;3.80;;
9960;SDS011;5021;51.506;11.320;2023-08-01T11:59:56;4.50;;;3.80;;
9960;SDS011;5021;51.506;11.320;2023-08-01T12:02:23;5.43;;;4.03;;
9960;SDS011;5021;51.506;11.320;2023-08-01T12:04:50;5.97;;;4.10;;
9960;SDS011;5021;51.506;11.320;2023-08-01T12:07:16;5.77;;;4.17;;
9960;SDS011;5021;51.506;11.320;2023-08-01T12:09:42;5.33;;;4.43;;
9960;SDS011;5021;51.506;11.320;2023-08-01T12:12:09;5.07;;;4.57;;
9960;SDS011;5021;51.506;11.320;2023-08-01T12:14:41;6.40;;;4.70;;
9960;SDS011;5021;51.506;11.320;2023-08-01T12:17:07;5.40;;;4.87;;
9960;SDS011;5021;51.506;11.320;2023-08-01T12:19:33;4.73;;;4.23;;
9960;SDS011;5021;51.506;11.320;2023-08-01T12:21:59;4.83;;;4.40;;
9960;SDS011;5021;51.506;11.320;2023-08-01T12:24:25;5.73;;;5.10;;
9960;SDS011;5021;51.506;11.320;2023-08-01T12:26:51;5.97;;;4.67;;
9960;SDS011;5021;51.506;11.320;2023-08-01T12:29:17;4.60;;;4.20;;
9960;SDS011;5021;51.506;11.320;2023-08-01T12:31:43;5.27;;;4.77;;
9960;SDS011;5021;51.506;11.320;2023-08-01T12:34:10;5.60;;;4.50;;
9960;SDS011;5021;51.506;11.320;2023-08-01T12:36:36;5.50;;;4.90;;
9960;SDS011;5021;51.506;11.320;2023-08-01T12:39:02;5.20;;;4.53;;
9960;SDS011;5021;51.506;11.320;2023-08-01T12:41:30;5.13;;;4.37;;
9960;SDS011;5021;51.506;11.320;2023-08-01T12:43:56;6.10;;;4.90;;
9960;SDS011;5021;51.506;11.320;2023-08-01T12:46:21;5.00;;;4.60;;
9960;SDS011;5021;51.506;11.320;2023-08-01T12:48:47;5.03;;;4.63;;
9960;SDS011;5021;51.506;11.320;2023-08-01T12:51:13;6.57;;;4.93;;
9960;SDS011;5021;51.506;11.320;2023-08-01T12:53:39;4.73;;;3.93;;
9960;SDS011;5021;51.506;11.320;2023-08-01T12:56:05;4.70;;;4.27;;
9960;SDS011;5021;51.506;11.320;2023-08-01T12:58:31;5.67;;;4.30;;
9960;SDS011;5021;51.506;11.320;2023-08-01T13:00:57;5.07;;;4.57;;
9960;SDS011;5021;51.506;11.320;2023-08-01T13:03:23;4.70;;;4.30;;
9960;SDS011;5021;51.506;11.320;2023-08-01T13:05:49;4.63;;;4.20;;
9960;SDS011;5021;51.506;11.320;2023-08-01T13:08:15;4.93;;;4.43;;
9960;SDS011;5021;51.506;11.320;2023-08-01T13:10:41;4.20;;;3.80;;
9960;SDS011;5021;51.506;11.320;2023-08-01T13:13:09;4.30;;;3.87;;
9960;SDS011;5021;51.506;11.320;2023-08-01T13:15:35;4.17;;;3.77;;
9960;SDS011;5021;51.506;11.320;2023-08-01T13:18:01;5.03;;;3.90;;
9960;SDS011;5021;51.506;11.320;2023-08-01T13:20:27;3.60;;;3.17;;
9960;SDS011;5021;51.506;11.320;2023-08-01T13:22:53;4.23;;;3.70;;
9960;SDS011;5021;51.506;11.320;2023-08-01T13:25:19;4.47;;;3.50;;
9960;SDS011;5021;51.506;11.320;2023-08-01T13:27:45;4.20;;;3.77;;
9960;SDS011;5021;51.506;11.320;2023-08-01T13:30:11;4.23;;;3.80;;
9960;SDS011;5021;51.506;11.320;2023-08-01T13:32:43;4.73;;;3.43;;
9960;SDS011;5021;51.506;11.320;2023-08-01T13:35:09;3.97;;;3.50;;
9960;SDS011;5021;51.506;11.320;2023-08-01T13:37:35;4.33;;;3.50;;
9960;SDS011;5021;51.506;11.320;2023-08-01T13:40:02;4.43;;;3.43;;
9960;SDS011;5021;51.506;11.320;2023-08-01T13:42:28;3.73;;;3.10;;
9960;SDS011;5021;51.506;11.320;2023-08-01T13:44:54;4.73;;;3.80;;
9960;SDS011;5021;51.506;11.320;2023-08-01T13:47:20;5.47;;;4.03;;
9960;SDS011;5021;51.506;11.320;2023-08-01T13:49:46;4.93;;;3.90;;
9960;SDS011;5021;51.506;11.320;2023-08-01T13:52:12;4.17;;;3.73;;
9960;SDS011;5021;51.506;11.320;2023-08-01T13:54:38;5.43;;;3.93;;
9960;SDS011;5021;51.506;11.320;2023-08-01T13:57:04;4.77;;;3.93;;
9960;SDS011;5021;51.506;11.320;2023-08-01T13:59:30;4.97;;;3.40;;
9960;SDS011;5021;51.506;11.320;2023-08-01T14:01:56;4.00;;;3.50;;
9960;SDS011;5021;51.506;11.320;2023-08-01T14:04:22;4.50;;;3.70;;
9960;SDS011;5021;51.506;11.320;2023-08-01T14:06:48;4.43;;;3.70;;
9960;SDS011;5021;51.506;11.320;2023-08-01T14:09:15;5.13;;;4.43;;
9960;SDS011;5021;51.506;11.320;2023-08-01T14:11:41;5.17;;;3.60;;
9960;SDS011;5021;51.506;11.320;2023-08-01T14:14:07;4.23;;;3.60;;
9960;SDS011;5021;51.506;11.320;2023-08-01T14:16:33;4.60;;;3.87;;
9960;SDS011;5021;51.506;11.320;2023-08-01T14:18:58;4.63;;;3.97;;
9960;SDS011;5021;51.506;11.320;2023-08-01T14:21:24;5.63;;;3.90;;
9960;SDS011;5021;51.506;11.320;2023-08-01T14:23:51;4.70;;;3.60;;
9960;SDS011;5021;51.506;11.320;2023-08-01T14:26:16;4.13;;;3.50;;
9960;SDS011;5021;51.506;11.320;2023-08-01T14:28:43;3.63;;;3.33;;
9960;SDS011;5021;51.506;11.320;2023-08-01T14:31:09;4.43;;;3.90;;
9960;SDS011;5021;51.506;11.320;2023-08-01T14:33:35;6.13;;;4.13;;
9960;SDS011;5021;51.506;11.320;2023-08-01T14:36:01;5.63;;;4.27;;
9960;SDS011;5021;51.506;11.320;2023-08-01T14:38:27;3.57;;;3.27;;
9960;SDS011;5021;51.506;11.320;2023-08-01T14:40:53;3.80;;;3.30;;
9960;SDS011;5021;51.506;11.320;2023-08-01T14:43:19;3.27;;;2.93;;
9960;SDS011;5021;51.506;11.320;2023-08-01T14:45:45;4.00;;;3.33;;
9960;SDS011;5021;51.506;11.320;2023-08-01T14:48:11;3.80;;;3.20;;
9960;SDS011;5021;51.506;11.320;2023-08-01T14:50:37;3.90;;;3.50;;
9960;SDS011;5021;51.506;11.320;2023-08-01T14:53:03;4.47;;;3.97;;
9960;SDS011;5021;51.506;11.320;2023-08-01T14:55:31;5.60;;;3.77;;